| time (UTC) | temp C | wind direction | speed KPH | gust KPH | rain 1hr cm | rain 24hr cm | rain mn cm | humidity % | barometer mb |
| 20260505183835 | 20 | 214 | 1.6 | 4.8 | 0.00 | 0.00 | 0.00 | 58 | 1006.4 |
| 20260505183332 | 20 | 223 | 4.8 | 8.0 | 0.00 | 0.00 | 0.00 | 57 | 1006.5 |
| 20260505182829 | 20 | 202 | 1.6 | 3.2 | 0.00 | 0.00 | 0.00 | 56 | 1006.7 |
| 20260505182326 | 20 | 159 | 1.6 | 4.8 | 0.00 | 0.00 | 0.00 | 56 | 1006.4 |
| 20260505181823 | 20 | 221 | 1.6 | 4.8 | 0.00 | 0.00 | 0.00 | 55 | 1007.0 |
| 20260505181320 | 20 | 120 | 1.6 | 8.0 | 0.00 | 0.00 | 0.00 | 55 | 1006.8 |
| 20260505180816 | 20 | 172 | 1.6 | 4.8 | 0.00 | 0.00 | 0.00 | 55 | 1007.0 |
| 20260505180313 | 20 | 172 | 3.2 | 4.8 | 0.00 | 0.00 | 0.00 | 57 | 1007.1 |
| 20260505175809 | 20 | 131 | 4.8 | 8.0 | 0.00 | 0.00 | 0.00 | 55 | 1007.1 |
| 20260505175306 | 20 | 272 | 1.6 | 4.8 | 0.00 | 0.00 | 0.00 | 56 | 1007.2 |
| 20260505174802 | 20 | 188 | 0.0 | 3.2 | 0.00 | 0.00 | 0.00 | 57 | 1007.2 |
| 20260505174300 | 19 | 185 | 3.2 | 11.3 | 0.00 | 0.00 | 0.00 | 56 | 1007.2 |
| 20260505173755 | 19 | 102 | 3.2 | 9.7 | 0.00 | 0.00 | 0.00 | 57 | 1007.2 |
| 20260505173252 | 19 | 213 | 1.6 | 8.0 | 0.00 | 0.00 | 0.00 | 57 | 1007.4 |
| 20260505172749 | 20 | 170 | 4.8 | 9.7 | 0.00 | 0.00 | 0.00 | 56 | 1007.5 |
| 20260505172246 | 19 | 164 | 4.8 | 4.8 | 0.00 | 0.00 | 0.00 | 56 | 1007.6 |
| 20260505171746 | 20 | 188 | 3.2 | 8.0 | 0.00 | 0.00 | 0.00 | 56 | 1007.5 |
| 20260505171243 | 19 | 193 | 1.6 | 8.0 | 0.00 | 0.00 | 0.00 | 57 | 1007.6 |
| 20260505170740 | 19 | 138 | 1.6 | 8.0 | 0.00 | 0.00 | 0.00 | 57 | 1007.8 |
| 20260505170237 | 19 | 185 | 3.2 | 4.8 | 0.00 | 0.00 | 0.00 | 56 | 1008.0 |
| 20260505165732 | 20 | 203 | 3.2 | 4.8 | 0.00 | 0.00 | 0.00 | 56 | 1007.8 |
| 20260505165228 | 20 | 179 | 1.6 | 8.0 | 0.00 | 0.00 | 0.00 | 55 | 1007.9 |
| 20260505164724 | 20 | 253 | 1.6 | 9.7 | 0.00 | 0.00 | 0.00 | 55 | 1008.2 |
| 20260505164221 | 21 | 192 | 1.6 | 8.0 | 0.00 | 0.00 | 0.00 | 53 | 1008.2 |
| 20260505163720 | 21 | 225 | 4.8 | 8.0 | 0.00 | 0.00 | 0.00 | 54 | 1008.3 |
| 20260505163218 | 20 | 237 | 1.6 | 3.2 | 0.00 | 0.00 | 0.00 | 54 | 1008.2 |
| 20260505162715 | 20 | 118 | 1.6 | 3.2 | 0.00 | 0.00 | 0.00 | 55 | 1008.2 |
| 20260505162212 | 20 | 242 | 1.6 | 4.8 | 0.00 | 0.00 | 0.00 | 55 | 1008.3 |
| 20260505161708 | 20 | 154 | 1.6 | 8.0 | 0.00 | 0.00 | 0.00 | 56 | 1008.3 |
| 20260505161206 | 20 | 196 | 1.6 | 3.2 | 0.00 | 0.00 | 0.00 | 56 | 1008.6 |
| 20260505160704 | 20 | 195 | 1.6 | 3.2 | 0.00 | 0.00 | 0.00 | 55 | 1008.1 |
| 20260505160201 | 19 | 207 | 3.2 | 3.2 | 0.00 | 0.00 | 0.00 | 56 | 1008.7 |
| 20260505153140 | 18 | 150 | 3.2 | 8.0 | 0.00 | 0.00 | 0.00 | 57 | 1008.7 |
| 20260505152637 | 18 | 146 | 4.8 | 9.7 | 0.00 | 0.00 | 0.00 | 56 | 1008.6 |
| 20260505152133 | 20 | 183 | 4.8 | 11.3 | 0.00 | 0.00 | 0.00 | 54 | 1008.7 |
| 20260505151628 | 20 | 49 | 1.6 | 3.2 | 0.00 | 0.00 | 0.00 | 55 | 1008.8 |
| 20260505151126 | 20 | 114 | 1.6 | 4.8 | 0.00 | 0.00 | 0.00 | 54 | 1008.8 |
| 20260505150622 | 20 | 193 | 4.8 | 4.8 | 0.00 | 0.00 | 0.00 | 53 | 1008.6 |
| 20260505150119 | 20 | 160 | 3.2 | 3.2 | 0.00 | 0.00 | 0.00 | 54 | 1008.8 |
| 20260505140547 | 19 | 65 | 1.6 | 3.2 | 0.00 | 0.00 | 0.00 | 53 | 1008.8 |
| 20260505125001 | 16 | 194 | 3.2 | 3.2 | 0.00 | 0.00 | 0.00 | 63 | 1009.2 |
| 20260505124458 | 15 | 135 | 3.2 | 3.2 | 0.00 | 0.00 | 0.00 | 67 | 1009.5 |
| 20260505123954 | 15 | 165 | 0.0 | 3.2 | 0.00 | 0.00 | 0.00 | 65 | 1009.3 |
| 20260505123450 | 15 | 156 | 1.6 | 3.2 | 0.00 | 0.00 | 0.00 | 66 | 1009.4 |
| 20260505122946 | 15 | 130 | 1.6 | 4.8 | 0.00 | 0.00 | 0.00 | 69 | 1009.5 |
| 20260505122444 | 14 | 136 | 1.6 | 3.2 | 0.00 | 0.00 | 0.00 | 70 | 1009.4 |
| 20260505121940 | 14 | 172 | 1.6 | 3.2 | 0.00 | 0.00 | 0.00 | 71 | 1009.5 |
| 20260505121438 | 13 | 124 | 1.6 | 3.2 | 0.00 | 0.00 | 0.00 | 73 | 1009.4 |
| 20260505120933 | 13 | 107 | 1.6 | 3.2 | 0.00 | 0.00 | 0.00 | 73 | 1009.5 |
| 20260505120430 | 13 | 154 | 1.6 | 3.2 | 0.00 | 0.00 | 0.00 | 74 | 1009.5 |
| 20260505115929 | 12 | 135 | 1.6 | 3.2 | 0.00 | 0.00 | 0.00 | 76 | 1009.7 |
| 20260505115426 | 11 | 103 | 0.0 | 1.6 | 0.00 | 0.00 | 0.00 | 79 | 1009.5 |
| 20260505114924 | 11 | 102 | 0.0 | 1.6 | 0.00 | 0.00 | 0.00 | 82 | 1009.6 |
| 20260505114420 | 11 | 102 | 1.6 | 1.6 | 0.00 | 0.00 | 0.00 | 81 | 1009.6 |
| 20260505113916 | 10 | 100 | 1.6 | 1.6 | 0.00 | 0.00 | 0.00 | 83 | 1009.5 |
| 20260505113413 | 10 | 116 | 1.6 | 3.2 | 0.00 | 0.00 | 0.00 | 84 | 1009.7 |
| 20260505112909 | 10 | 120 | 1.6 | 3.2 | 0.00 | 0.00 | 0.00 | 85 | 1009.8 |
| 20260505112407 | 10 | 107 | 0.0 | 1.6 | 0.00 | 0.00 | 0.00 | 85 | 1009.7 |
| 20260505111902 | 10 | 117 | 0.0 | 3.2 | 0.00 | 0.00 | 0.00 | 86 | 1009.4 |
| 20260505111357 | 9 | 192 | 1.6 | 1.6 | 0.00 | 0.00 | 0.00 | 88 | 1009.5 |
| 20260505110853 | 8 | 218 | 1.6 | 1.6 | 0.00 | 0.00 | 0.00 | 89 | 1009.7 |
| 20260505110351 | 8 | 218 | 0.0 | 1.6 | 0.00 | 0.00 | 0.00 | 90 | 1009.6 |
| 20260505101821 | 6 | 219 | 1.6 | 3.2 | 0.00 | 0.00 | 0.00 | 94 | 1009.6 |
| 20260505101316 | 6 | 219 | 1.6 | 3.2 | 0.00 | 0.00 | 0.00 | 95 | 1009.8 |
| 20260505100813 | 6 | 219 | 0.0 | 3.2 | 0.00 | 0.00 | 0.00 | 94 | 1009.6 |
| 20260505100309 | 6 | 219 | 1.6 | 3.2 | 0.00 | 0.00 | 0.00 | 94 | 1009.6 |
| 20260505095805 | 6 | 219 | 1.6 | 3.2 | 0.00 | 0.00 | 0.00 | 94 | 1009.6 |
| 20260505095304 | 6 | 220 | 1.6 | 3.2 | 0.00 | 0.00 | 0.00 | 94 | 1009.7 |
| 20260505094758 | 6 | 220 | 1.6 | 1.6 | 0.00 | 0.00 | 0.00 | 94 | 1009.6 |
| 20260505094255 | 6 | 220 | 1.6 | 1.6 | 0.00 | 0.00 | 0.00 | 94 | 1009.2 |
| 20260505093751 | 6 | 220 | 1.6 | 3.2 | 0.00 | 0.00 | 0.00 | 95 | 1009.4 |
| 20260505093249 | 6 | 220 | 1.6 | 3.2 | 0.00 | 0.00 | 0.00 | 96 | 1009.4 |
| 20260505092745 | 6 | 220 | 1.6 | 3.2 | 0.00 | 0.00 | 0.00 | 96 | 1009.2 |
| 20260505092244 | 6 | 220 | 1.6 | 1.6 | 0.00 | 0.00 | 0.00 | 96 | 1009.2 |
| 20260505091741 | 6 | 220 | 1.6 | 3.2 | 0.00 | 0.00 | 0.00 | 95 | 1009.3 |
| 20260505091239 | 6 | 220 | 0.0 | 3.2 | 0.00 | 0.00 | 0.00 | 96 | 1009.3 |
| 20260505090736 | 6 | 220 | 1.6 | 3.2 | 0.00 | 0.00 | 0.00 | 96 | 1009.3 |
| 20260505090235 | 6 | 219 | 3.2 | 3.2 | 0.00 | 0.00 | 0.00 | 97 | 1009.4 |
| 20260505085732 | 6 | 218 | 3.2 | 3.2 | 0.00 | 0.00 | 0.00 | 97 | 1009.2 |
| 20260505085230 | 6 | 217 | 3.2 | 3.2 | 0.00 | 0.00 | 0.00 | 97 | 1009.2 |
| 20260505084727 | 6 | 217 | 1.6 | 3.2 | 0.00 | 0.00 | 0.00 | 97 | 1009.4 |
| 20260505084226 | 6 | 217 | 1.6 | 3.2 | 0.00 | 0.00 | 0.00 | 97 | 1009.3 |
| 20260505083722 | 6 | 217 | 1.6 | 3.2 | 0.00 | 0.00 | 0.00 | 96 | 1009.3 |
| 20260505083219 | 6 | 217 | 1.6 | 3.2 | 0.00 | 0.00 | 0.00 | 97 | 1009.3 |
| 20260505082715 | 6 | 217 | 1.6 | 1.6 | 0.00 | 0.00 | 0.00 | 96 | 1009.3 |
| 20260505082213 | 6 | 217 | 1.6 | 3.2 | 0.00 | 0.00 | 0.00 | 96 | 1009.3 |
| 20260505081708 | 6 | 217 | 1.6 | 3.2 | 0.00 | 0.00 | 0.00 | 96 | 1009.3 |
| 20260505081206 | 6 | 213 | 1.6 | 1.6 | 0.00 | 0.00 | 0.00 | 95 | 1009.3 |
| 20260505080703 | 6 | 217 | 3.2 | 3.2 | 0.00 | 0.00 | 0.00 | 96 | 1009.2 |
| 20260505080158 | 6 | 213 | 3.2 | 3.2 | 0.00 | 0.00 | 0.00 | 95 | 1009.4 |
| 20260505075654 | 6 | 211 | 0.0 | 3.2 | 0.00 | 0.00 | 0.00 | 96 | 1009.4 |
| 20260505075151 | 6 | 212 | 3.2 | 3.2 | 0.00 | 0.00 | 0.00 | 95 | 1009.4 |
| 20260505074648 | 6 | 209 | 1.6 | 3.2 | 0.00 | 0.00 | 0.00 | 95 | 1009.6 |
| 20260505074145 | 6 | 209 | 1.6 | 3.2 | 0.00 | 0.00 | 0.00 | 95 | 1009.5 |
| 20260505073643 | 6 | 210 | 1.6 | 3.2 | 0.00 | 0.00 | 0.00 | 95 | 1009.3 |
| 20260505073141 | 6 | 202 | 1.6 | 3.2 | 0.00 | 0.00 | 0.00 | 95 | 1009.5 |
| 20260505072636 | 6 | 198 | 1.6 | 3.2 | 0.00 | 0.00 | 0.00 | 95 | 1009.4 |
| 20260505072133 | 6 | 200 | 1.6 | 3.2 | 0.00 | 0.00 | 0.00 | 95 | 1009.3 |
| 20260505071629 | 6 | 211 | 3.2 | 3.2 | 0.00 | 0.00 | 0.00 | 95 | 1009.3 |
| 20260505071127 | 6 | 203 | 1.6 | 3.2 | 0.00 | 0.00 | 0.00 | 95 | 1009.3 |
| 20260505070624 | 6 | 194 | 1.6 | 3.2 | 0.00 | 0.00 | 0.00 | 95 | 1009.3 |
| 20260505070120 | 6 | 211 | 1.6 | 1.6 | 0.00 | 0.00 | 0.00 | 94 | 1009.2 |
| 20260505065616 | 6 | 212 | 3.2 | 3.2 | 0.00 | 0.00 | 0.00 | 94 | 1009.2 |
| 20260505065113 | 6 | 216 | 1.6 | 3.2 | 0.00 | 0.00 | 0.00 | 95 | 1009.3 |
| 20260505064610 | 6 | 217 | 3.2 | 3.2 | 0.00 | 0.00 | 0.00 | 94 | 1009.1 |
| 20260505064108 | 6 | 216 | 4.8 | 4.8 | 0.00 | 0.00 | 0.00 | 95 | 1009.1 |
| 20260505063605 | 6 | 216 | 3.2 | 3.2 | 0.00 | 0.00 | 0.00 | 95 | 1009.1 |
| 20260505063101 | 6 | 203 | 1.6 | 3.2 | 0.00 | 0.00 | 0.00 | 95 | 1009.1 |
| 20260505062557 | 6 | 208 | 1.6 | 3.2 | 0.00 | 0.00 | 0.00 | 95 | 1009.1 |
| 20260505062055 | 6 | 200 | 1.6 | 3.2 | 0.00 | 0.00 | 0.00 | 95 | 1009.1 |
| 20260505061552 | 6 | 197 | 1.6 | 3.2 | 0.00 | 0.00 | 0.00 | 96 | 1009.1 |
| 20260505061050 | 6 | 196 | 1.6 | 3.2 | 0.00 | 0.00 | 0.00 | 97 | 1009.1 |
| 20260505060547 | 6 | 197 | 0.0 | 3.2 | 0.00 | 0.00 | 0.00 | 97 | 1009.1 |
| 20260505060044 | 5 | 198 | 1.6 | 3.2 | 0.00 | 0.00 | 0.00 | 97 | 1009.1 |
| 20260505055539 | 5 | 197 | 1.6 | 3.2 | 0.00 | 0.00 | 0.00 | 97 | 1009.1 |
| 20260505055036 | 6 | 197 | 1.6 | 1.6 | 0.00 | 0.00 | 0.00 | 97 | 1009.1 |
| 20260505054533 | 6 | 198 | 1.6 | 1.6 | 0.00 | 0.00 | 0.00 | 97 | 1009.3 |
| 20260505054032 | 6 | 198 | 1.6 | 1.6 | 0.00 | 0.00 | 0.00 | 97 | 1009.1 |
| 20260505053528 | 6 | 198 | 0.0 | 1.6 | 0.00 | 0.00 | 0.00 | 96 | 1008.9 |
| 20260505053025 | 6 | 198 | 0.0 | 3.2 | 0.00 | 0.00 | 0.00 | 96 | 1009.2 |
| 20260505052522 | 6 | 197 | 1.6 | 1.6 | 0.00 | 0.00 | 0.00 | 96 | 1008.9 |
| 20260505052020 | 6 | 200 | 1.6 | 1.6 | 0.00 | 0.00 | 0.00 | 96 | 1009.2 |
| 20260505051516 | 6 | 201 | 1.6 | 1.6 | 0.00 | 0.00 | 0.00 | 96 | 1008.8 |
| 20260505051014 | 6 | 202 | 3.2 | 3.2 | 0.00 | 0.00 | 0.00 | 96 | 1008.8 |
| 20260505050512 | 6 | 203 | 1.6 | 1.6 | 0.00 | 0.00 | 0.00 | 96 | 1008.9 |
| 20260505041440 | 6 | 235 | 0.0 | 1.6 | 0.00 | 0.00 | 0.00 | 97 | 1008.8 |
| 20260505040937 | 6 | 235 | 1.6 | 1.6 | 0.00 | 0.00 | 0.00 | 97 | 1009.0 |
| 20260505040434 | 6 | 236 | 1.6 | 1.6 | 0.00 | 0.00 | 0.00 | 97 | 1008.9 |
| 20260505035931 | 6 | 236 | 1.6 | 1.6 | 0.00 | 0.00 | 0.00 | 97 | 1009.1 |
| 20260505035427 | 6 | 251 | 0.0 | 1.6 | 0.00 | 0.00 | 0.00 | 96 | 1008.8 |
| 20260505034925 | 6 | 251 | 1.6 | 1.6 | 0.00 | 0.00 | 0.00 | 96 | 1009.0 |
| 20260505034421 | 6 | 252 | 0.0 | 0.0 | 0.00 | 0.00 | 0.00 | 95 | 1009.1 |
| 20260505033918 | 7 | 252 | 0.0 | 0.0 | 0.00 | 0.00 | 0.00 | 94 | 1009.0 |
| 20260505033414 | 7 | 252 | 1.6 | 1.6 | 0.00 | 0.00 | 0.00 | 94 | 1008.8 |
| 20260505032913 | 7 | 251 | 1.6 | 1.6 | 0.00 | 0.00 | 0.00 | 94 | 1008.9 |
| 20260505032409 | 7 | 253 | 1.6 | 3.2 | 0.00 | 0.00 | 0.00 | 94 | 1008.9 |
| 20260505031906 | 7 | 264 | 1.6 | 1.6 | 0.00 | 0.00 | 0.00 | 93 | 1008.8 |
| 20260505031403 | 7 | 269 | 1.6 | 3.2 | 0.00 | 0.00 | 0.00 | 93 | 1008.9 |
| 20260505030900 | 7 | 283 | 1.6 | 1.6 | 0.00 | 0.00 | 0.00 | 93 | 1009.1 |
| 20260505030356 | 8 | 283 | 1.6 | 1.6 | 0.00 | 0.00 | 0.00 | 92 | 1008.8 |
| 20260505025851 | 8 | 289 | 1.6 | 1.6 | 0.00 | 0.00 | 0.00 | 91 | 1008.9 |
| 20260505025349 | 8 | 294 | 1.6 | 1.6 | 0.00 | 0.00 | 0.00 | 91 | 1009.1 |
| 20260505024848 | 8 | 306 | 1.6 | 1.6 | 0.00 | 0.00 | 0.00 | 91 | 1009.0 |
| 20260505024345 | 8 | 308 | 1.6 | 1.6 | 0.00 | 0.00 | 0.00 | 91 | 1008.9 |
| 20260505023842 | 8 | 308 | 0.0 | 1.6 | 0.00 | 0.00 | 0.00 | 90 | 1009.1 |
| 20260505023339 | 8 | 308 | 0.0 | 1.6 | 0.00 | 0.00 | 0.00 | 90 | 1009.2 |
| 20260505022836 | 8 | 309 | 1.6 | 1.6 | 0.00 | 0.00 | 0.00 | 90 | 1009.4 |
| 20260505022333 | 8 | 311 | 0.0 | 1.6 | 0.00 | 0.00 | 0.00 | 91 | 1009.2 |
| 20260505021831 | 7 | 325 | 1.6 | 1.6 | 0.00 | 0.00 | 0.00 | 94 | 1008.9 |
| 20260505021327 | 7 | 339 | 0.0 | 0.0 | 0.00 | 0.00 | 0.00 | 94 | 1009.2 |
| 20260505020823 | 7 | 339 | 0.0 | 0.0 | 0.00 | 0.00 | 0.00 | 94 | 1008.9 |
| 20260505020318 | 7 | 339 | 0.0 | 1.6 | 0.00 | 0.00 | 0.00 | 94 | 1009.0 |
| 20260505015815 | 7 | 338 | 0.0 | 1.6 | 0.00 | 0.00 | 0.00 | 93 | 1009.1 |
| 20260505015313 | 8 | 339 | 0.0 | 0.0 | 0.00 | 0.00 | 0.00 | 93 | 1008.9 |
| 20260505014810 | 8 | 339 | 0.0 | 0.0 | 0.00 | 0.00 | 0.00 | 92 | 1008.9 |
| 20260505014307 | 8 | 332 | 0.0 | 0.0 | 0.00 | 0.00 | 0.00 | 92 | 1009.0 |
| 20260505013803 | 8 | 332 | 0.0 | 0.0 | 0.00 | 0.00 | 0.00 | 92 | 1008.8 |
| 20260505013301 | 8 | 337 | 0.0 | 0.0 | 0.00 | 0.00 | 0.00 | 91 | 1008.9 |
| 20260505012759 | 8 | 337 | 0.0 | 0.0 | 0.00 | 0.00 | 0.00 | 91 | 1009.0 |
| 20260505012256 | 8 | 339 | 0.0 | 0.0 | 0.00 | 0.00 | 0.00 | 90 | 1008.8 |
| 20260505011752 | 8 | 322 | 0.0 | 0.0 | 0.00 | 0.00 | 0.00 | 89 | 1008.8 |
| 20260505011249 | 8 | 309 | 1.6 | 1.6 | 0.00 | 0.00 | 0.00 | 90 | 1008.6 |
| 20260505010744 | 8 | 309 | 1.6 | 1.6 | 0.00 | 0.00 | 0.00 | 90 | 1008.9 |
| 20260505010241 | 8 | 309 | 0.0 | 1.6 | 0.00 | 0.00 | 0.00 | 91 | 1008.7 |
| 20260505005737 | 8 | 309 | 0.0 | 0.0 | 0.00 | 0.00 | 0.00 | 90 | 1008.6 |
| 20260505005234 | 8 | 309 | 0.0 | 1.6 | 0.00 | 0.00 | 0.00 | 89 | 1008.6 |
| 20260505004731 | 9 | 310 | 1.6 | 1.6 | 0.00 | 0.00 | 0.00 | 88 | 1008.2 |
| 20260505004228 | 9 | 310 | 0.0 | 0.0 | 0.00 | 0.00 | 0.00 | 86 | 1008.1 |
| 20260505003725 | 9 | 310 | 0.0 | 0.0 | 0.00 | 0.00 | 0.00 | 86 | 1007.9 |
| 20260505003223 | 10 | 310 | 1.6 | 1.6 | 0.00 | 0.00 | 0.00 | 86 | 1007.9 |
| 20260505002719 | 10 | 310 | 0.0 | 0.0 | 0.00 | 0.00 | 0.00 | 84 | 1007.8 |
| 20260505002217 | 10 | 310 | 0.0 | 0.0 | 0.00 | 0.00 | 0.00 | 84 | 1007.6 |
| 20260505001714 | 10 | 310 | 0.0 | 1.6 | 0.00 | 0.00 | 0.00 | 83 | 1007.7 |
| 20260505001211 | 10 | 310 | 0.0 | 0.0 | 0.00 | 0.00 | 0.00 | 82 | 1007.6 |
| 20260505000708 | 10 | 310 | 0.0 | 0.0 | 0.00 | 0.00 | 0.00 | 81 | 1007.6 |
| 20260505000206 | 10 | 310 | 0.0 | 0.0 | 0.00 | 0.00 | 0.00 | 79 | 1007.6 |
| 20260504235702 | 11 | 310 | 0.0 | 0.0 | 0.00 | 0.00 | 0.00 | 78 | 1007.5 |
| 20260504235158 | 11 | 310 | 0.0 | 0.0 | 0.00 | 0.00 | 0.00 | 78 | 1007.4 |
| 20260504234655 | 11 | 310 | 0.0 | 1.6 | 0.00 | 0.00 | 0.00 | 76 | 1007.3 |
| 20260504234152 | 11 | 310 | 0.0 | 1.6 | 0.00 | 0.00 | 0.00 | 76 | 1007.1 |
| 20260504233649 | 12 | 310 | 0.0 | 1.6 | 0.00 | 0.00 | 0.00 | 74 | 1007.1 |
| 20260504233145 | 12 | 310 | 0.0 | 1.6 | 0.00 | 0.00 | 0.00 | 73 | 1007.1 |
| 20260504232643 | 12 | 310 | 1.6 | 1.6 | 0.00 | 0.00 | 0.00 | 73 | 1007.1 |
| 20260504232139 | 12 | 310 | 0.0 | 0.0 | 0.00 | 0.00 | 0.00 | 71 | 1007.2 |
| 20260504231636 | 13 | 310 | 0.0 | 1.6 | 0.00 | 0.00 | 0.00 | 68 | 1007.2 |
| 20260504231132 | 13 | 310 | 0.0 | 0.0 | 0.00 | 0.00 | 0.00 | 67 | 1007.1 |
| 20260504230629 | 13 | 311 | 0.0 | 0.0 | 0.00 | 0.00 | 0.00 | 67 | 1006.7 |
| 20260504230128 | 14 | 311 | 0.0 | 0.0 | 0.00 | 0.00 | 0.00 | 62 | 1007.0 |
| 20260504225626 | 14 | 311 | 0.0 | 1.6 | 0.00 | 0.00 | 0.00 | 61 | 1006.8 |
| 20260504225121 | 15 | 311 | 1.6 | 1.6 | 0.00 | 0.00 | 0.00 | 60 | 1006.7 |
| 20260504224618 | 15 | 346 | 3.2 | 4.8 | 0.00 | 0.00 | 0.00 | 59 | 1006.6 |
| 20260504224115 | 15 | 279 | 0.0 | 1.6 | 0.00 | 0.00 | 0.00 | 60 | 1006.5 |
| 20260504223612 | 15 | 272 | 0.0 | 1.6 | 0.00 | 0.00 | 0.00 | 59 | 1006.4 |
| 20260504223108 | 15 | 255 | 3.2 | 3.2 | 0.00 | 0.00 | 0.00 | 58 | 1006.7 |
| 20260504222605 | 15 | 288 | 1.6 | 3.2 | 0.00 | 0.00 | 0.00 | 59 | 1006.4 |
| 20260504222102 | 15 | 295 | 3.2 | 3.2 | 0.00 | 0.00 | 0.00 | 59 | 1006.1 |
| 20260504221559 | 15 | 235 | 6.4 | 8.0 | 0.00 | 0.00 | 0.00 | 59 | 1006.6 |
| 20260504221056 | 15 | 305 | 0.0 | 1.6 | 0.00 | 0.00 | 0.00 | 60 | 1006.6 |
| 20260504220552 | 15 | 227 | 3.2 | 3.2 | 0.00 | 0.00 | 0.00 | 60 | 1006.6 |
| 20260504220050 | 15 | 195 | 3.2 | 8.0 | 0.00 | 0.00 | 0.00 | 60 | 1006.6 |
| 20260504215546 | 15 | 279 | 1.6 | 3.2 | 0.00 | 0.00 | 0.00 | 59 | 1006.3 |
| 20260504215044 | 15 | 311 | 1.6 | 3.2 | 0.00 | 0.00 | 0.00 | 59 | 1006.4 |
| 20260504214539 | 15 | 201 | 1.6 | 3.2 | 0.00 | 0.00 | 0.00 | 60 | 1006.5 |
| 20260504214036 | 15 | 248 | 1.6 | 3.2 | 0.00 | 0.00 | 0.00 | 60 | 1006.4 |
| 20260504213532 | 15 | 101 | 0.0 | 3.2 | 0.00 | 0.00 | 0.00 | 60 | 1006.4 |
| 20260504213030 | 15 | 143 | 0.0 | 1.6 | 0.00 | 0.00 | 0.00 | 60 | 1006.2 |
| 20260504212526 | 15 | 344 | 0.0 | 3.2 | 0.00 | 0.00 | 0.00 | 59 | 1006.3 |
| 20260504212023 | 15 | 214 | 4.8 | 4.8 | 0.00 | 0.00 | 0.00 | 58 | 1006.1 |
| 20260504211520 | 15 | 274 | 1.6 | 4.8 | 0.00 | 0.00 | 0.00 | 57 | 1005.9 |
| 20260504211017 | 15 | 231 | 6.4 | 9.7 | 0.00 | 0.00 | 0.00 | 56 | 1006.0 |
| 20260504210514 | 15 | 278 | 4.8 | 11.3 | 0.00 | 0.00 | 0.00 | 57 | 1006.0 |
| 20260504210011 | 16 | 78 | 0.0 | 3.2 | 0.00 | 0.00 | 0.00 | 58 | 1006.0 |
| 20260504205509 | 16 | 298 | 3.2 | 8.0 | 0.00 | 0.00 | 0.00 | 56 | 1005.8 |
| 20260504205006 | 16 | 18 | 6.4 | 9.7 | 0.00 | 0.00 | 0.00 | 55 | 1006.1 |
| 20260504204504 | 16 | 284 | 6.4 | 12.9 | 0.00 | 0.00 | 0.00 | 56 | 1005.9 |
| 20260504204003 | 16 | 272 | 1.6 | 3.2 | 0.00 | 0.00 | 0.00 | 57 | 1005.8 |
| 20260504203500 | 15 | 277 | 4.8 | 11.3 | 0.00 | 0.00 | 0.00 | 58 | 1005.6 |
| 20260504202956 | 15 | 282 | 9.7 | 12.9 | 0.00 | 0.00 | 0.00 | 58 | 1005.9 |
| 20260504202453 | 15 | 230 | 3.2 | 8.0 | 0.00 | 0.00 | 0.00 | 60 | 1005.8 |
| 20260504201950 | 15 | 288 | 8.0 | 11.3 | 0.00 | 0.00 | 0.00 | 59 | 1005.8 |
| 20260504201447 | 15 | 215 | 3.2 | 8.0 | 0.00 | 0.00 | 0.00 | 61 | 1005.7 |
| 20260504200945 | 15 | 29 | 0.0 | 3.2 | 0.00 | 0.00 | 0.00 | 63 | 1005.6 |
| 20260504200441 | 15 | 61 | 1.6 | 3.2 | 0.00 | 0.00 | 0.00 | 65 | 1005.8 |
| 20260504195938 | 15 | 17 | 3.2 | 8.0 | 0.00 | 0.00 | 0.00 | 64 | 1005.6 |
| 20260504195434 | 15 | 285 | 1.6 | 1.6 | 0.00 | 0.00 | 0.00 | 65 | 1005.6 |
| 20260504194930 | 14 | 268 | 8.0 | 11.3 | 0.00 | 0.00 | 0.00 | 64 | 1005.7 |
| 20260504194426 | 15 | 313 | 6.4 | 8.0 | 0.00 | 0.00 | 0.00 | 65 | 1005.7 |
| 20260504193923 | 14 | 7 | 1.6 | 4.8 | 0.00 | 0.00 | 0.00 | 67 | 1006.0 |
| 20260504193420 | 14 | 180 | 1.6 | 3.2 | 0.00 | 0.00 | 0.00 | 66 | 1006.1 |
| 20260504192919 | 13 | 5 | 1.6 | 3.2 | 0.00 | 0.00 | 0.00 | 68 | 1005.9 |
| 20260504192415 | 13 | 260 | 4.8 | 4.8 | 0.00 | 0.00 | 0.00 | 68 | 1005.7 |
| 20260504191914 | 13 | 54 | 1.6 | 1.6 | 0.00 | 0.00 | 0.00 | 69 | 1006.1 |
| 20260504191412 | 13 | 71 | 0.0 | 1.6 | 0.00 | 0.00 | 0.00 | 71 | 1006.0 |
| 20260504190907 | 12 | 122 | 1.6 | 3.2 | 0.00 | 0.00 | 0.00 | 70 | 1006.1 |
| 20260504190403 | 12 | 60 | 1.6 | 3.2 | 0.00 | 0.00 | 0.00 | 72 | 1006.1 |
| 20260504185900 | 12 | 197 | 4.8 | 4.8 | 0.00 | 0.00 | 0.00 | 68 | 1006.4 |
| 20260504185357 | 13 | 157 | 4.8 | 9.7 | 0.00 | 0.00 | 0.00 | 66 | 1006.4 |
| 20260504184853 | 13 | 312 | 1.6 | 3.2 | 0.00 | 0.00 | 0.00 | 69 | 1006.2 |
| 20260504184349 | 13 | 279 | 3.2 | 4.8 | 0.00 | 0.00 | 0.00 | 67 | 1006.4 |